createdAt,value
2022-12-12T00:01:27.313Z,-1.80
2022-12-12T00:03:55.649Z,-1.70
2022-12-12T00:06:24.898Z,-1.80
2022-12-12T00:08:53.722Z,-1.80
2022-12-12T00:11:23.920Z,-1.70
2022-12-12T00:13:54.584Z,-1.70
2022-12-12T00:16:24.392Z,-1.70
2022-12-12T00:18:52.692Z,-1.70
2022-12-12T00:21:23.492Z,-1.70
2022-12-12T00:23:52.302Z,-1.70
2022-12-12T00:26:22.780Z,-1.70
2022-12-12T00:28:53.455Z,-1.70
2022-12-12T00:31:21.544Z,-1.70
2022-12-12T00:33:51.113Z,-1.60
2022-12-12T00:36:21.516Z,-1.70
2022-12-12T00:38:49.845Z,-1.80
2022-12-12T00:41:18.493Z,-1.70
2022-12-12T00:43:46.481Z,-1.70
2022-12-12T00:46:16.571Z,-1.80
2022-12-12T00:48:45.204Z,-1.70
2022-12-12T00:51:17.935Z,-1.70
2022-12-12T00:53:46.948Z,-1.70
2022-12-12T00:56:16.517Z,-1.70
2022-12-12T00:58:44.853Z,-1.70
2022-12-12T01:01:17.584Z,-1.70
2022-12-12T01:03:46.029Z,-1.70
2022-12-12T01:06:17.602Z,-1.70
2022-12-12T01:08:45.631Z,-1.70
2022-12-12T01:11:15.667Z,-1.60
2022-12-12T01:13:44.926Z,-1.70
2022-12-12T01:16:15.115Z,-1.70
2022-12-12T01:18:43.950Z,-1.70
2022-12-12T01:21:13.170Z,-1.60
2022-12-12T01:23:42.680Z,-1.70
2022-12-12T01:26:14.925Z,-1.70
2022-12-12T01:28:43.651Z,-1.60
2022-12-12T01:31:12.491Z,-1.60
2022-12-12T01:33:45.856Z,-1.60
2022-12-12T01:36:16.531Z,-1.60
2022-12-12T01:38:45.846Z,-1.60
2022-12-12T01:41:15.012Z,-1.60
2022-12-12T01:43:43.444Z,-1.60
2022-12-12T01:46:43.466Z,-1.60
2022-12-12T01:49:24.328Z,-1.60
2022-12-12T01:51:57.182Z,-1.60
2022-12-12T01:54:30.000Z,-1.50
2022-12-12T01:57:00.733Z,-1.60
2022-12-12T01:59:30.281Z,-1.60
2022-12-12T02:01:58.449Z,-1.60
2022-12-12T02:04:28.924Z,-1.60
2022-12-12T02:06:58.127Z,-1.50
2022-12-12T02:09:27.045Z,-1.50
2022-12-12T02:11:57.207Z,-1.50
2022-12-12T02:14:29.624Z,-1.50
2022-12-12T02:17:36.050Z,-1.40
2022-12-12T02:20:45.641Z,-1.40
2022-12-12T02:23:50.847Z,-1.40
2022-12-12T02:26:57.835Z,-1.40
2022-12-12T02:29:59.373Z,-1.50
2022-12-12T02:32:42.584Z,-1.40
2022-12-12T02:35:20.155Z,-1.50
2022-12-12T02:37:53.882Z,-1.50
2022-12-12T02:40:26.661Z,-1.50
2022-12-12T02:43:00.622Z,-1.50
2022-12-12T02:45:35.440Z,-1.50
2022-12-12T02:48:11.207Z,-1.50
2022-12-12T02:50:42.589Z,-1.40
2022-12-12T02:53:10.889Z,-1.40
2022-12-12T02:55:38.872Z,-1.40
2022-12-12T02:58:07.707Z,-1.40
2022-12-12T03:00:54.947Z,-1.40
2022-12-12T03:03:56.894Z,-1.40
2022-12-12T03:06:58.554Z,-1.40
2022-12-12T03:09:38.294Z,-1.40
2022-12-12T03:12:09.856Z,-1.40
2022-12-12T03:14:49.365Z,-1.40
2022-12-12T03:17:26.914Z,-1.40
2022-12-12T03:20:01.187Z,-1.40
2022-12-12T03:22:33.763Z,-1.40
2022-12-12T03:25:06.718Z,-1.40
2022-12-12T03:27:40.054Z,-1.40
2022-12-12T03:30:12.283Z,-1.40
2022-12-12T03:32:46.580Z,-1.40
2022-12-12T03:35:20.528Z,-1.40
2022-12-12T03:37:52.417Z,-1.40
2022-12-12T03:40:27.926Z,-1.50
2022-12-12T03:43:04.456Z,-1.50
2022-12-12T03:45:39.717Z,-1.50
2022-12-12T03:48:13.539Z,-1.50
2022-12-12T03:50:46.984Z,-1.50
2022-12-12T03:53:21.064Z,-1.50
2022-12-12T03:55:54.894Z,-1.50
2022-12-12T03:58:29.636Z,-1.50
2022-12-12T04:01:00.572Z,-1.50
2022-12-12T04:03:33.912Z,-1.50
2022-12-12T04:06:29.467Z,-1.50
2022-12-12T04:09:17.835Z,-1.50
2022-12-12T04:12:15.018Z,-1.50
2022-12-12T04:15:05.126Z,-1.50
2022-12-12T04:17:41.865Z,-1.50
2022-12-12T04:20:36.876Z,-1.50
2022-12-12T04:23:19.020Z,-1.50
2022-12-12T04:26:18.975Z,-1.50
2022-12-12T04:28:56.078Z,-1.50
2022-12-12T04:31:27.968Z,-1.50
2022-12-12T04:34:02.705Z,-1.60
2022-12-12T04:36:32.675Z,-1.50
2022-12-12T04:39:03.111Z,-1.50
2022-12-12T04:41:35.336Z,-1.50
2022-12-12T04:44:06.840Z,-1.50
2022-12-12T04:46:35.413Z,-1.60
2022-12-12T04:49:08.143Z,-1.60
2022-12-12T04:51:42.128Z,-1.60
2022-12-12T04:54:17.370Z,-1.50
2022-12-12T04:59:39.352Z,-1.50
2022-12-12T05:02:15.818Z,-1.50
2022-12-12T05:04:52.195Z,-1.50
2022-12-12T05:07:29.241Z,-1.50
2022-12-12T05:10:00.319Z,-1.50
2022-12-12T05:12:28.908Z,-1.50
2022-12-12T05:14:56.874Z,-1.50
2022-12-12T05:17:32.066Z,-1.50
2022-12-12T05:20:01.268Z,-1.50
2022-12-12T05:22:29.930Z,-1.50
2022-12-12T05:24:59.277Z,-1.50
2022-12-12T05:27:27.709Z,-1.50
2022-12-12T05:29:56.460Z,-1.50
2022-12-12T05:32:24.475Z,-1.50
2022-12-12T05:34:53.897Z,-1.60
2022-12-12T05:37:22.372Z,-1.50
2022-12-12T05:39:50.437Z,-1.50
2022-12-12T05:42:20.211Z,-1.60
2022-12-12T05:44:48.422Z,-1.60
2022-12-12T05:47:16.597Z,-1.60
2022-12-12T05:49:45.376Z,-1.60
2022-12-12T05:52:13.385Z,-1.60
2022-12-12T05:54:41.431Z,-1.60
2022-12-12T05:57:09.722Z,-1.60
2022-12-12T05:59:39.042Z,-1.60
2022-12-12T06:02:07.264Z,-1.60
2022-12-12T06:04:36.336Z,-1.60
2022-12-12T06:07:05.578Z,-1.60
2022-12-12T06:09:34.021Z,-1.60
2022-12-12T06:12:02.040Z,-1.60
2022-12-12T06:14:30.225Z,-1.60
2022-12-12T06:16:59.736Z,-1.60
2022-12-12T06:19:27.675Z,-1.60
2022-12-12T06:21:56.969Z,-1.60
2022-12-12T06:24:25.226Z,-1.60
2022-12-12T06:26:53.343Z,-1.60
2022-12-12T06:29:21.325Z,-1.70
2022-12-12T06:31:49.302Z,-1.60
2022-12-12T06:34:19.102Z,-1.70
2022-12-12T06:36:50.423Z,-1.70
2022-12-12T06:39:18.979Z,-1.70
2022-12-12T06:41:46.992Z,-1.60
2022-12-12T06:44:15.717Z,-1.70
2022-12-12T06:46:44.059Z,-1.70
2022-12-12T06:49:12.426Z,-1.70
2022-12-12T06:51:44.318Z,-1.60
2022-12-12T06:54:13.263Z,-1.60
2022-12-12T06:56:47.989Z,-1.60
2022-12-12T06:59:16.951Z,-1.60
2022-12-12T07:01:45.553Z,-1.60
2022-12-12T07:04:13.846Z,-1.50
2022-12-12T07:06:43.664Z,-1.50
2022-12-12T07:09:12.385Z,-1.50
2022-12-12T07:11:41.730Z,-1.50
2022-12-12T07:14:11.418Z,-1.50
2022-12-12T07:16:39.707Z,-1.50
2022-12-12T07:19:07.681Z,-1.50
2022-12-12T07:21:36.658Z,-1.50
2022-12-12T07:24:06.518Z,-1.40
2022-12-12T07:26:34.548Z,-1.50
2022-12-12T07:29:05.834Z,-1.40
2022-12-12T07:31:34.432Z,-1.40
2022-12-12T07:34:02.438Z,-1.40
2022-12-12T07:36:30.636Z,-1.40
2022-12-12T07:38:58.832Z,-1.40
2022-12-12T07:41:28.205Z,-1.30
2022-12-12T07:43:56.570Z,-1.40
2022-12-12T07:46:26.497Z,-1.30
2022-12-12T07:48:55.355Z,-1.30
2022-12-12T07:51:24.112Z,-1.30
2022-12-12T07:53:52.339Z,-1.30
2022-12-12T07:56:21.215Z,-1.20
2022-12-12T07:58:51.689Z,-1.20
2022-12-12T08:01:22.361Z,-1.20
2022-12-12T08:03:51.300Z,-1.20
2022-12-12T08:06:20.183Z,-1.20
2022-12-12T08:08:49.714Z,-1.10
2022-12-12T08:11:20.730Z,-1.10
2022-12-12T08:13:54.073Z,-1.10
2022-12-12T08:16:24.892Z,-1.10
2022-12-12T08:18:54.765Z,-1.10
2022-12-12T08:21:25.699Z,-1.20
2022-12-12T08:23:57.071Z,-1.20
2022-12-12T08:26:25.910Z,-1.40
2022-12-12T08:28:55.947Z,-1.40
2022-12-12T08:31:24.902Z,-1.40
2022-12-12T08:33:53.388Z,-1.40
2022-12-12T08:36:23.252Z,-1.40
2022-12-12T08:38:52.147Z,-1.50
2022-12-12T08:41:20.919Z,-1.60
2022-12-12T08:43:49.807Z,-1.60
2022-12-12T08:46:20.748Z,-1.60
2022-12-12T08:48:49.271Z,-1.60
2022-12-12T08:51:18.455Z,-1.60
2022-12-12T08:53:46.713Z,-1.50
2022-12-12T08:56:15.608Z,-1.40
2022-12-12T08:58:45.048Z,-1.40
2022-12-12T09:01:14.342Z,-1.50
2022-12-12T09:03:43.718Z,-1.50
2022-12-12T09:06:12.330Z,-1.50
2022-12-12T09:08:40.285Z,-1.50
2022-12-12T09:11:09.554Z,-1.50
2022-12-12T09:13:38.114Z,-1.50
2022-12-12T09:16:07.302Z,-1.30
2022-12-12T09:18:36.540Z,-1.30
2022-12-12T09:21:08.235Z,-1.40
2022-12-12T09:23:37.475Z,-1.20
2022-12-12T09:26:07.076Z,-1.10
2022-12-12T09:28:36.088Z,-1.10
2022-12-12T09:31:06.120Z,-1.00
2022-12-12T09:33:35.316Z,-1.00
2022-12-12T09:36:06.916Z,-1.10
2022-12-12T09:38:39.135Z,-1.10
2022-12-12T09:41:13.944Z,-1.00
2022-12-12T09:43:49.329Z,-0.80
2022-12-12T09:46:27.925Z,-0.70
2022-12-12T09:49:03.181Z,-0.80
2022-12-12T09:51:32.885Z,-0.90
2022-12-12T09:54:01.093Z,-0.90
2022-12-12T09:56:36.469Z,-0.90
2022-12-12T09:59:10.229Z,-0.70
2022-12-12T10:01:43.452Z,-0.50
2022-12-12T10:04:21.396Z,-0.30
2022-12-12T10:06:58.747Z,-0.30
2022-12-12T10:09:38.998Z,-0.20
2022-12-12T10:12:12.818Z,-0.10
2022-12-12T10:14:45.114Z,0.00
2022-12-12T10:17:16.990Z,0.00
2022-12-12T10:19:51.605Z,0.00
2022-12-12T10:22:29.824Z,0.10
2022-12-12T10:25:04.370Z,0.10
2022-12-12T10:27:32.537Z,0.10
2022-12-12T10:30:08.093Z,0.00
2022-12-12T10:32:48.527Z,0.10
2022-12-12T10:35:26.680Z,0.20
2022-12-12T10:38:07.659Z,0.30
2022-12-12T10:40:46.595Z,0.20
2022-12-12T10:43:22.363Z,0.20
2022-12-12T10:46:17.757Z,0.10
2022-12-12T10:48:48.493Z,-0.10
2022-12-12T10:51:19.817Z,0.00
2022-12-12T10:53:49.337Z,0.00
2022-12-12T10:56:22.642Z,0.00
2022-12-12T10:58:56.557Z,0.00
2022-12-12T11:02:00.610Z,0.00
2022-12-12T11:04:17.261Z,0.10
2022-12-12T11:06:49.482Z,0.00
2022-12-12T11:09:22.707Z,-0.10
2022-12-12T11:12:00.852Z,-0.30
2022-12-12T11:14:34.652Z,-0.40
2022-12-12T11:17:03.720Z,-0.40
2022-12-12T11:19:39.331Z,-0.40
2022-12-12T11:22:07.967Z,-0.30
2022-12-12T11:24:43.506Z,0.00
2022-12-12T11:27:21.092Z,0.30
2022-12-12T11:29:50.879Z,0.40
2022-12-12T11:32:22.459Z,0.60
2022-12-12T11:34:56.884Z,0.40
2022-12-12T11:37:27.782Z,0.50
2022-12-12T11:39:58.536Z,0.50
2022-12-12T11:42:29.666Z,0.70
2022-12-12T11:45:20.587Z,0.80
2022-12-12T11:47:49.508Z,0.70
2022-12-12T11:50:20.913Z,0.80
2022-12-12T11:52:51.430Z,0.80
2022-12-12T11:55:32.862Z,0.70
2022-12-12T11:58:11.825Z,0.50
2022-12-12T12:00:46.826Z,0.50
2022-12-12T12:03:25.780Z,0.50
2022-12-12T12:06:14.307Z,0.40
2022-12-12T12:09:00.579Z,0.20
2022-12-12T12:11:39.712Z,0.20
2022-12-12T12:14:21.188Z,0.30
2022-12-12T12:17:02.607Z,0.20
2022-12-12T12:19:40.254Z,0.30
2022-12-12T12:22:23.795Z,0.40
2022-12-12T12:25:09.873Z,0.40
2022-12-12T12:27:48.324Z,0.30
2022-12-12T12:30:23.277Z,0.30
2022-12-12T12:33:25.600Z,0.20
2022-12-12T12:36:02.829Z,0.20
2022-12-12T12:38:50.666Z,0.10
2022-12-12T12:41:45.107Z,0.00
2022-12-12T12:44:29.038Z,0.00
2022-12-12T12:47:05.072Z,0.10
2022-12-12T12:52:31.954Z,0.20
2022-12-12T12:55:01.740Z,0.00
2022-12-12T12:57:35.082Z,-0.10
2022-12-12T13:00:10.473Z,0.00
2022-12-12T13:02:50.216Z,0.00
2022-12-12T13:05:23.808Z,0.10
2022-12-12T13:07:58.126Z,0.20
2022-12-12T13:10:29.372Z,0.20
2022-12-12T13:13:02.426Z,0.20
2022-12-12T13:15:34.637Z,0.20
2022-12-12T13:18:04.569Z,0.20
2022-12-12T13:20:35.906Z,0.10
2022-12-12T13:23:35.267Z,0.10
2022-12-12T13:26:10.677Z,0.00
2022-12-12T13:28:43.316Z,0.00
2022-12-12T13:31:37.097Z,-0.10
2022-12-12T13:34:08.112Z,-0.20
2022-12-12T13:36:39.668Z,-0.30
2022-12-12T13:39:10.339Z,-0.40
2022-12-12T13:42:01.511Z,-0.40
2022-12-12T13:44:39.515Z,-0.40
2022-12-12T13:47:29.857Z,-0.50
2022-12-12T13:50:00.373Z,-0.50
2022-12-12T13:52:30.619Z,-0.60
2022-12-12T13:55:22.138Z,-0.60
2022-12-12T13:58:18.724Z,-0.60
2022-12-12T14:00:48.541Z,-0.70
2022-12-12T14:03:35.612Z,-0.70
2022-12-12T14:06:19.833Z,-0.80
2022-12-12T14:08:51.679Z,-0.80
2022-12-12T14:11:31.704Z,-0.90
2022-12-12T14:14:09.190Z,-0.90
2022-12-12T14:16:40.555Z,-0.90
2022-12-12T14:19:26.934Z,-1.00
2022-12-12T14:21:54.959Z,-1.10
2022-12-12T14:24:59.764Z,-1.10
2022-12-12T14:28:01.931Z,-1.20
2022-12-12T14:30:38.908Z,-1.20
2022-12-12T14:33:33.135Z,-1.20
2022-12-12T14:36:08.760Z,-1.30
2022-12-12T14:38:47.967Z,-1.40
2022-12-12T14:41:21.741Z,-1.50
2022-12-12T14:44:36.351Z,-1.50
2022-12-12T14:46:43.138Z,-1.60
2022-12-12T14:49:16.211Z,-1.70
2022-12-12T14:51:48.245Z,-1.80
2022-12-12T14:54:19.603Z,-1.80
2022-12-12T14:56:52.973Z,-1.90
2022-12-12T14:59:24.472Z,-2.00
2022-12-12T15:01:56.340Z,-2.10
2022-12-12T15:04:28.960Z,-2.10
2022-12-12T15:06:59.886Z,-2.20
2022-12-12T15:09:30.522Z,-2.20
2022-12-12T15:12:16.672Z,-2.30
2022-12-12T15:14:55.130Z,-2.40
2022-12-12T15:17:26.378Z,-2.50
2022-12-12T15:19:56.657Z,-2.50
2022-12-12T15:22:29.642Z,-2.60
2022-12-12T15:24:59.890Z,-2.60
2022-12-12T15:27:32.096Z,-2.70
2022-12-12T15:30:01.680Z,-2.80
2022-12-12T15:32:30.237Z,-2.90
2022-12-12T15:35:04.764Z,-2.90
2022-12-12T15:37:36.327Z,-3.00
2022-12-12T15:40:22.523Z,-3.10
2022-12-12T15:42:54.584Z,-3.00
2022-12-12T15:45:33.192Z,-3.10
2022-12-12T15:48:02.086Z,-3.20
2022-12-12T15:50:36.005Z,-3.40
2022-12-12T15:53:09.704Z,-3.40
2022-12-12T15:55:37.809Z,-3.40
2022-12-12T15:58:06.844Z,-3.40
2022-12-12T16:00:37.921Z,-3.40
2022-12-12T16:03:23.374Z,-3.50
2022-12-12T16:06:04.491Z,-3.50
2022-12-12T16:08:46.788Z,-3.50
2022-12-12T16:11:42.699Z,-3.60
2022-12-12T16:14:44.654Z,-3.60
2022-12-12T16:17:16.735Z,-3.70
2022-12-12T16:19:48.675Z,-3.80
2022-12-12T16:22:33.336Z,-3.80
2022-12-12T16:25:21.539Z,-3.80
2022-12-12T16:27:55.901Z,-3.90
2022-12-12T16:30:24.491Z,-3.80
2022-12-12T16:32:52.619Z,-3.90
2022-12-12T16:35:23.314Z,-3.90
2022-12-12T16:37:53.632Z,-3.90
2022-12-12T16:40:23.357Z,-4.00
2022-12-12T16:42:57.996Z,-4.10
2022-12-12T16:45:26.220Z,-4.10
2022-12-12T16:47:55.251Z,-4.10
2022-12-12T16:50:23.368Z,-4.20
2022-12-12T16:52:51.442Z,-4.30
2022-12-12T16:55:24.109Z,-4.30
2022-12-12T16:57:52.104Z,-4.40
2022-12-12T17:00:20.595Z,-4.30
2022-12-12T17:02:48.982Z,-4.30
2022-12-12T17:05:22.479Z,-4.40
2022-12-12T17:07:51.828Z,-4.40
2022-12-12T17:10:20.638Z,-4.40
2022-12-12T17:12:50.054Z,-4.40
2022-12-12T17:15:22.708Z,-4.40
2022-12-12T17:17:50.876Z,-4.50
2022-12-12T17:20:18.975Z,-4.50
2022-12-12T17:22:47.183Z,-4.60
2022-12-12T17:25:15.835Z,-4.60
2022-12-12T17:27:44.140Z,-4.60
2022-12-12T17:30:15.029Z,-4.70
2022-12-12T17:32:43.645Z,-4.70
2022-12-12T17:35:12.035Z,-4.80
2022-12-12T17:37:40.155Z,-4.70
2022-12-12T17:40:11.338Z,-4.80
2022-12-12T17:42:40.027Z,-4.80
2022-12-12T17:45:10.671Z,-4.90
2022-12-12T17:47:40.147Z,-4.90
2022-12-12T17:50:12.712Z,-4.90
2022-12-12T17:52:41.038Z,-4.90
2022-12-12T17:55:54.128Z,-5.00
2022-12-12T17:57:57.782Z,-5.10
2022-12-12T18:00:25.806Z,-5.00
2022-12-12T18:02:55.263Z,-5.00
2022-12-12T18:05:23.569Z,-4.90
2022-12-12T18:07:51.944Z,-5.00
2022-12-12T18:10:20.340Z,-5.10
2022-12-12T18:12:51.828Z,-5.10
2022-12-12T18:15:20.375Z,-5.10
2022-12-12T18:17:48.510Z,-5.10
2022-12-12T18:20:18.299Z,-5.10
2022-12-12T18:22:46.402Z,-5.20
2022-12-12T18:25:14.443Z,-5.20
2022-12-12T18:27:42.528Z,-5.20
2022-12-12T18:30:12.245Z,-5.20
2022-12-12T18:32:40.512Z,-5.30
2022-12-12T18:35:09.576Z,-5.30
2022-12-12T18:37:39.297Z,-5.30
2022-12-12T18:40:08.802Z,-5.30
2022-12-12T18:42:36.965Z,-5.30
2022-12-12T18:45:05.606Z,-5.40
2022-12-12T18:47:33.646Z,-5.50
2022-12-12T18:50:01.792Z,-5.40
2022-12-12T18:52:29.769Z,-5.40
2022-12-12T18:54:59.137Z,-5.30
2022-12-12T18:57:27.621Z,-5.40
2022-12-12T18:59:55.619Z,-5.50
2022-12-12T19:02:23.937Z,-5.50
2022-12-12T19:04:53.926Z,-5.60
2022-12-12T19:07:21.961Z,-5.60
2022-12-12T19:09:50.078Z,-5.60
2022-12-12T19:12:19.480Z,-5.60
2022-12-12T19:17:36.156Z,-5.60
2022-12-12T19:20:04.714Z,-5.60
2022-12-12T19:22:44.916Z,-5.60
2022-12-12T19:25:14.851Z,-5.70
2022-12-12T19:27:44.226Z,-5.60
2022-12-12T19:30:14.557Z,-5.60
2022-12-12T19:32:48.609Z,-5.60
2022-12-12T19:35:17.256Z,-5.50
2022-12-12T19:37:45.310Z,-5.60
2022-12-12T19:40:14.267Z,-5.70
2022-12-12T19:42:44.061Z,-5.60
2022-12-12T19:45:12.135Z,-5.60
2022-12-12T19:47:40.126Z,-5.70
2022-12-12T19:50:08.709Z,-5.70
2022-12-12T19:52:36.723Z,-5.70
2022-12-12T19:55:05.309Z,-5.70
2022-12-12T19:57:33.425Z,-5.80
2022-12-12T20:00:03.538Z,-5.80
2022-12-12T20:02:37.662Z,-5.80
2022-12-12T20:05:06.628Z,-5.80
2022-12-12T20:07:34.869Z,-5.80
2022-12-12T20:10:02.854Z,-5.90
2022-12-12T20:12:31.451Z,-5.90
2022-12-12T20:14:59.438Z,-5.90
2022-12-12T20:17:28.799Z,-5.90
2022-12-12T20:19:57.796Z,-5.80
2022-12-12T20:22:26.016Z,-5.80
2022-12-12T20:24:54.335Z,-5.80
2022-12-12T20:27:23.331Z,-5.70
2022-12-12T20:29:51.873Z,-5.70
2022-12-12T20:32:19.916Z,-5.70
2022-12-12T20:34:49.755Z,-5.80
2022-12-12T20:37:20.319Z,-5.80
2022-12-12T20:39:48.668Z,-5.90
2022-12-12T20:42:16.670Z,-6.00
2022-12-12T20:44:44.849Z,-6.00
2022-12-12T20:47:17.014Z,-6.10
2022-12-12T20:49:45.055Z,-6.00
2022-12-12T20:52:14.412Z,-6.10
2022-12-12T20:54:42.525Z,-6.10
2022-12-12T20:57:10.616Z,-6.10
2022-12-12T20:59:38.802Z,-6.00
2022-12-12T21:02:07.245Z,-6.10
2022-12-12T21:04:35.840Z,-6.10
2022-12-12T21:07:04.283Z,-6.00
2022-12-12T21:09:33.866Z,-6.10
2022-12-12T21:12:02.206Z,-6.10
2022-12-12T21:14:32.931Z,-6.10
2022-12-12T21:17:00.911Z,-6.20
2022-12-12T21:19:29.013Z,-6.20
2022-12-12T21:21:57.781Z,-6.20
2022-12-12T21:24:26.844Z,-6.20
2022-12-12T21:26:56.196Z,-6.30
2022-12-12T21:29:24.538Z,-6.30
2022-12-12T21:31:52.975Z,-6.30
2022-12-12T21:34:22.879Z,-6.30
2022-12-12T21:36:52.977Z,-6.30
2022-12-12T21:39:23.425Z,-6.30
2022-12-12T21:41:51.781Z,-6.40
2022-12-12T21:44:21.549Z,-6.40
2022-12-12T21:46:50.062Z,-6.50
2022-12-12T21:49:27.314Z,-6.50
2022-12-12T21:51:57.304Z,-6.50
2022-12-12T21:54:26.629Z,-6.60
2022-12-12T21:56:55.228Z,-6.60
2022-12-12T21:59:24.649Z,-6.60
2022-12-12T22:01:55.772Z,-6.60
2022-12-12T22:04:23.939Z,-6.70
2022-12-12T22:06:52.243Z,-6.60
2022-12-12T22:09:20.592Z,-6.70
2022-12-12T22:11:50.264Z,-6.70
2022-12-12T22:14:21.388Z,-6.70
2022-12-12T22:16:50.912Z,-6.70
2022-12-12T22:19:19.221Z,-6.70
2022-12-12T22:21:48.791Z,-6.80
2022-12-12T22:24:17.711Z,-6.70
2022-12-12T22:26:47.549Z,-6.70
2022-12-12T22:29:19.107Z,-6.60
2022-12-12T22:31:49.892Z,-6.60
2022-12-12T22:34:22.333Z,-6.60
2022-12-12T22:36:50.627Z,-6.60
2022-12-12T22:39:20.285Z,-6.60
2022-12-12T22:41:50.868Z,-6.60
2022-12-12T22:44:21.217Z,-6.60
2022-12-12T22:46:50.745Z,-6.60
2022-12-12T22:49:25.447Z,-6.60
2022-12-12T22:51:54.178Z,-6.60
2022-12-12T22:54:22.271Z,-6.60
2022-12-12T22:56:50.283Z,-6.80
2022-12-12T22:59:18.353Z,-6.80
2022-12-12T23:01:46.432Z,-6.90
2022-12-12T23:04:16.382Z,-6.90
2022-12-12T23:06:46.012Z,-6.90
2022-12-12T23:09:15.775Z,-7.00
2022-12-12T23:11:45.490Z,-7.00
2022-12-12T23:14:16.130Z,-7.20
2022-12-12T23:16:45.310Z,-7.20
2022-12-12T23:19:17.773Z,-7.20
2022-12-12T23:21:47.906Z,-7.20
2022-12-12T23:24:16.503Z,-7.10
2022-12-12T23:26:46.068Z,-7.20
2022-12-12T23:29:17.251Z,-7.10
2022-12-12T23:31:45.838Z,-7.10
2022-12-12T23:34:17.605Z,-7.10
2022-12-12T23:36:47.202Z,-7.10
2022-12-12T23:39:15.846Z,-7.00
2022-12-12T23:41:44.897Z,-7.00
2022-12-12T23:44:14.892Z,-6.90
2022-12-12T23:46:43.600Z,-6.90
2022-12-12T23:49:16.238Z,-6.90
2022-12-12T23:51:47.438Z,-6.90
2022-12-12T23:54:18.525Z,-6.90
2022-12-12T23:56:47.691Z,-6.80
2022-12-12T23:59:18.201Z,-6.80
